ADDS METAR Data INFO
IDs: Format: Raw Decoded Include TAF

Data at: 0806 UTC 24 May 2018

K46U 240740Z AUTO 00000KT 4SM BR CLR 07/07 A3011 RMK A01
K46U 240720Z AUTO 00000KT 1 3/4SM BR CLR 07/06 A3011 RMK A01
K46U 240700Z AUTO 00000KT 10SM CLR 07/07 A3011 RMK A01
K46U 240640Z AUTO 00000KT 10SM FEW085 07/07 A3011 RMK A01
K46U 240620Z AUTO 00000KT 10SM BKN080 08/08 A3011 RMK A01
K46U 240600Z AUTO 00000KT 10SM OVC075 09/08 A3010 RMK A01
K46U 240540Z AUTO 00000KT 10SM OVC070 09/08 A3010 RMK A01
K46U 240520Z AUTO 10009KT 10SM BKN070 OVC080 09/08 A3010 RMK A01
K46U 240500Z AUTO 09004KT 10SM FEW065 OVC075 10/08 A3010 RMK A01
K46U 240440Z AUTO 10006KT 10SM FEW065 OVC070 10/09 A3011 RMK A01
K46U 240420Z AUTO 09005KT 10SM SCT070 BKN080 OVC095 10/09 A3010 RMK A01
K46U 240400Z AUTO 10004KT 10SM FEW060 OVC075 10/09 A3010 RMK A01
K46U 240340Z AUTO 11009KT 10SM BKN060 OVC070 10/09 A3009 RMK A01
K46U 240320Z AUTO 13008KT 10SM OVC060 10/09 A3009 RMK A01
K46U 240300Z AUTO 13005KT 10SM OVC060 10/09 A3008 RMK A01
K46U 240240Z AUTO 11006KT 10SM OVC060 10/09 A3008 RMK A01
K46U 240220Z AUTO 12005KT 10SM OVC055 10/09 A3008 RMK A01
K46U 240200Z AUTO VRB04KT 10SM OVC055 11/08 A3007 RMK A01 P0007
K46U 240140Z AUTO 03010KT 6SM BR FEW033 SCT040 OVC055 10/09 A3007 RMK A01
K46U 240120Z AUTO 28004G12KT 3SM HZ SCT036 BKN044 OVC055 11/09 A3007 RMK A01
K46U 240100Z AUTO 31009KT 10SM FEW042 SCT055 BKN070 13/10 A3004 RMK A01
K46U 240040Z AUTO 00000KT 10SM SCT080 OVC100 14/09 A3001 RMK A01
K46U 240020Z AUTO 00000KT 10SM SCT080 BKN110 14/09 A3002 RMK A01
K46U 240000Z AUTO 32005KT 10SM FEW100 14/10 A3001 RMK A01
K46U 232340Z AUTO 28005KT 10SM FEW100 13/10 A3001 RMK A01
K46U 232320Z AUTO 31007G13KT 10SM FEW070 SCT085 13/10 A3001 RMK A01
K46U 232300Z AUTO 30011KT 10SM BKN085 BKN100 13/10 A3002 RMK A01
K46U 232240Z AUTO 31004KT 10SM BKN095 15/09 A3001 RMK A01
K46U 232220Z AUTO 35007KT 10SM FEW042 SCT065 OVC090 13/10 A3001 RMK A01
K46U 232200Z AUTO 32003KT 10SM SCT044 BKN055 OVC065 13/10 A3000 RMK A01
K46U 232140Z AUTO 24004KT 10SM SCT044 BKN050 BKN055 13/10 A3000 RMK A01
K46U 232120Z AUTO 31003KT 10SM FEW070 14/10 A3000 RMK A01
K46U 232100Z AUTO 34005KT 10SM CLR 14/10 A3000 RMK A01
K46U 232040Z AUTO VRB04KT 10SM CLR 13/09 A3001 RMK A01
K46U 232020Z AUTO 00000KT 10SM CLR 12/09 A3001 RMK A01
K46U 232000Z AUTO 34004KT 10SM CLR 12/09 A3002 RMK A01
K46U 231940Z AUTO 33004KT 10SM CLR 11/09 A3002 RMK A01
K46U 231920Z AUTO VRB04KT 10SM FEW008 11/09 A3002 RMK A01
K46U 231900Z AUTO VRB05KT 10SM SCT006 10/09 A3003 RMK A01
K46U 231840Z AUTO 00000KT 10SM BKN006 10/09 A3004 RMK A01
K46U 231820Z AUTO 00000KT 9SM BKN006 BKN043 09/09 A3004 RMK A01
K46U 231800Z AUTO 00000KT 6SM BR SCT005 SCT036 BKN044 09/08 A3005 RMK A01 P0005
K46U 231740Z AUTO 00000KT 5SM BR FEW006 FEW035 BKN043 09/08 A3004 RMK A01
K46U 231720Z AUTO 00000KT 8SM FEW007 OVC042 09/08 A3004 RMK A01
K46U 231700Z AUTO 00000KT 6SM BR FEW029 FEW034 OVC041 09/08 A3004 RMK A01 P0006
K46U 231640Z AUTO 00000KT 4SM BR FEW025 BKN031 OVC044 09/08 A3004 RMK A01
K46U 231620Z AUTO 00000KT 3SM BR BKN024 OVC034 09/08 A3003 RMK A01
K46U 231600Z AUTO 00000KT 4SM BR OVC023 09/07 A3003 RMK A01 P0006
K46U 231540Z AUTO 00000KT 5SM BR OVC023 09/08 A3004 RMK A01
K46U 231520Z AUTO 00000KT 6SM BR BKN025 BKN035 OVC043 09/07 A3004 RMK A01
K46U 231500Z AUTO 00000KT 8SM FEW026 BKN035 OVC043 09/07 A3003 RMK A01 P0004
K46U 231440Z AUTO 14003KT 7SM FEW012 BKN034 OVC043 09/08 A3003 RMK A01
K46U 231420Z AUTO 00000KT 7SM OVC034 09/08 A3003 RMK A01
K46U 231400Z AUTO 00000KT 10SM OVC033 09/08 A3002 RMK A01
K46U 231340Z AUTO 13003KT 10SM OVC032 09/08 A3002 RMK A01
K46U 231320Z AUTO 13004KT 10SM OVC033 09/08 A3002 RMK A01
K46U 231300Z AUTO 13004KT 10SM BKN033 BKN038 OVC044 09/08 A3002 RMK A01 P0001
K46U 231240Z AUTO 00000KT 10SM BKN039 OVC044 08/08 A3001 RMK A01
K46U 231220Z AUTO 00000KT 10SM OVC040 08/08 A3001 RMK A01
K46U 231200Z AUTO 00000KT 10SM OVC039 08/08 A3001 RMK A01
K46U 231140Z AUTO 11004KT 10SM OVC038 08/08 A3001 RMK A01
K46U 231120Z AUTO 00000KT 10SM OVC036 08/08 A3001 RMK A01
K46U 231100Z AUTO 13003KT 10SM BKN036 OVC050 09/08 A3001 RMK A01 P0002
K46U 231040Z AUTO 00000KT 10SM FEW036 OVC050 09/08 A3000 RMK A01
K46U 231020Z AUTO 04004KT 7SM FEW030 BKN036 OVC049 09/07 A3001 RMK A01
K46U 231000Z AUTO 12004KT 7SM BKN034 OVC047 09/07 A3001 RMK A01 P0006
K46U 230940Z AUTO 11005KT 5SM BR FEW015 BKN034 OVC047 09/07 A3001 RMK A01
K46U 230920Z AUTO 00000KT 6SM BR FEW013 SCT032 OVC048 09/07 A3001 RMK A01
K46U 230900Z AUTO VRB05G12KT 5SM BR FEW003 SCT009 BKN013 09/08 A3002 RMK A01 P0004
K46U 230840Z AUTO 16009KT 7SM SCT010 BKN024 OVC043 09/08 A3002 RMK A01
K46U 230820Z AUTO 18006KT 7SM BKN044 OVC050 09/08 A3002 RMK A01
K46U 230800Z AUTO 20003KT 10SM OVC050 09/08 A3001 RMK A01
K46U 230740Z AUTO 00000KT 10SM OVC055 09/08 A3001 RMK A01
K46U 230720Z AUTO 10003KT 10SM OVC055 09/08 A3001 RMK A01
K46U 230700Z AUTO 00000KT 10SM OVC060 09/07 A3001 RMK A01
K46U 230640Z AUTO 00000KT 10SM BKN060 OVC070 09/07 A3001 RMK A01
K46U 230620Z AUTO 00000KT 10SM SCT060 BKN110 09/08 A3001 RMK A01
K46U 230600Z AUTO 00000KT 10SM SCT110 09/08 A3001 RMK A01
K46U 230540Z AUTO 00000KT 10SM CLR 09/08 A3000 RMK A01
K46U 230520Z AUTO 00000KT 10SM CLR 09/07 A3001 RMK A01
K46U 230500Z AUTO 00000KT 10SM CLR 10/07 A3001 RMK A01
K46U 230440Z AUTO 12007KT 10SM CLR 10/07 A3002 RMK A01
K46U 230420Z AUTO 13008KT 10SM CLR 10/07 A3003 RMK A01
K46U 230400Z AUTO 12008KT 10SM FEW110 10/07 A3002 RMK A01
K46U 230340Z AUTO 13007KT 10SM CLR 10/07 A3002 RMK A01
K46U 230320Z AUTO 11006KT 10SM CLR 10/07 A3002 RMK A01
K46U 230300Z AUTO 11005KT 10SM CLR 10/07 A3001 RMK A01
K46U 230240Z AUTO 11005KT 10SM CLR 11/07 A3001 RMK A01
K46U 230220Z AUTO 14007KT 10SM CLR 11/07 A3001 RMK A01
K46U 230200Z AUTO 15008KT 10SM CLR 11/07 A3000 RMK A01
K46U 230140Z AUTO 13011KT 10SM CLR 11/07 A2999 RMK A01
K46U 230120Z AUTO 15007G12KT 10SM CLR 11/07 A2999 RMK A01
K46U 230100Z AUTO 14012KT 10SM CLR 11/07 A2998 RMK A01
K46U 230040Z AUTO 14013G20KT 10SM CLR 12/07 A2998 RMK A01
K46U 230020Z AUTO 12012G18KT 10SM CLR 11/09 A2999 RMK A01
K46U 230000Z AUTO 00000KT 10SM FEW037 SCT043 10/07 A3002 RMK A01 P0005
K46U 222340Z AUTO VRB04G13KT 10SM SCT037 BKN049 10/07 A3006 RMK A01
K46U 222320Z AUTO 17013G23KT 3SM BR FEW038 BKN049 BKN055 10/08 A3007 RMK A01
K46U 222300Z AUTO 18014G25KT 8SM FEW038 BKN046 OVC060 11/09 A3006 RMK A01 P0001
K46U 222240Z AUTO 16011G17KT 140V220 10SM SCT046 SCT065 BKN095 14/07 A3004 RMK A01
K46U 222220Z AUTO 17010KT 10SM CLR 14/08 A3003 RMK A01
K46U 222200Z AUTO 18008G13KT 10SM FEW100 16/08 A3002 RMK A01
K46U 222140Z AUTO 16005KT 10SM BKN100 15/08 A3001 RMK A01
K46U 222120Z AUTO VRB03KT 10SM FEW100 15/09 A3001 RMK A01
K46U 222100Z AUTO 18005KT 10SM CLR 13/08 A3004 RMK A01
K46U 222040Z AUTO 00000KT 10SM SCT090 13/08 A3005 RMK A01
K46U 222020Z AUTO 15005KT 10SM SCT095 13/09 A3005 RMK A01